This is the latest recevied weather packets stored in our database for station/object PU5FJO-13. If no packets are shown the sender has not sent any weather packets the latest 10 day(s).
| Time | Temp. | Humidity | Pressure | Rain* | Wind** | Luminosity | Snow |
|---|---|---|---|---|---|---|---|
| 1777593370 | 20° C | 78% | 1021.1 hPa | - | - | - | - |
| 1777592769 | 21.67° C | 72% | 1021 hPa | - | - | - | - |
| 1777592169 | 21.11° C | 72% | 1020.9 hPa | - | - | - | - |
| 1777591569 | 21.11° C | 74% | 1020.7 hPa | - | - | - | - |
| 1777590969 | 21.11° C | 74% | 1020.6 hPa | - | - | - | - |
| 1777590369 | 20.56° C | 76% | 1020.5 hPa | - | - | - | - |
| 1777589769 | 20.56° C | 75% | 1020.3 hPa | - | - | - | - |
| 1777589169 | 20.56° C | 76% | 1020.1 hPa | - | - | - | - |
| 1777588569 | 21.11° C | 74% | 1020 hPa | - | - | - | - |
| 1777587969 | 20.56° C | 77% | 1020 hPa | - | - | - | - |
| 1777587368 | 20.56° C | 75% | 1019.7 hPa | - | - | - | - |
| 1777586769 | 21.11° C | 74% | 1019.6 hPa | - | - | - | - |
| 1777586169 | 21.11° C | 76% | 1019.5 hPa | - | - | - | - |
| 1777585569 | 21.67° C | 73% | 1019.4 hPa | - | - | - | - |
| 1777584968 | 22.78° C | 68% | 1019.3 hPa | - | - | - | - |
| 1777584368 | 22.22° C | 72% | 1019 hPa | - | - | - | - |
| 1777583768 | 22.78° C | 71% | 1018.9 hPa | - | - | - | - |
| 1777583169 | 22.22° C | 72% | 1018.8 hPa | - | - | - | - |
| 1777582568 | 22.78° C | 70% | 1018.8 hPa | - | - | - | - |
| 1777581968 | 22.78° C | 70% | 1018.7 hPa | - | - | - | - |
| 1777581368 | 22.78° C | 69% | 1018.5 hPa | - | - | - | - |
| 1777580768 | 22.78° C | 69% | 1018.5 hPa | - | - | - | - |
| 1777580168 | 22.78° C | 69% | 1018.4 hPa | - | - | - | - |
| 1777579568 | 23.33° C | 69% | 1018.4 hPa | - | - | - | - |
| 1777578968 | 23.33° C | 68% | 1018.3 hPa | - | - | - | - |
* Rain since midnight (hover to see other rain measurements)
** Current wind speed in m/s (hover to see current wind gust speed)